Latest Weather Observations for Badgerys Creek

IDN60901

Issued at 9:31 pm EST Wednesday 24 May 2017 (issued every 10 minutes, with the page automatically refreshed every 10 minutes)

About weather observations | Map of Sydney area stations | Latest observations for Sydney area | Other Formats
Station Details ID: 067108 Name: BADGERYS CREEK AWS Lat: -33.90 Lon: 150.73 Height: 81.2 m
Data from the previous 72 hours. | See also: Recent months at Badgerys Creek
Date/Time
EST
Temp
°C
App
Temp
°C
Dew
Point
°C
Rel
Hum
%
Delta-T
°C
Wind Press
QNH
hPa
Press
MSL
hPa
Rain since
9am
mm
Dir  Spd
km/h
Gust
km/h
Spd
kts
Gust
kts
24/09:30pm 13.7 9.7 6.8 63 3.3 WSW 17 26 9 14 1018.3 1018.2 0.0
24/09:00pm 12.8 10.3 6.4 65 3.1 WSW 9 13 5 7 1018.5 1018.4 0.0
24/08:30pm 12.8 9.8 6.2 64 3.1 WSW 11 15 6 8 1018.2 1018.1 0.0
24/08:00pm 13.1 10.5 6.2 63 3.3 WSW 9 13 5 7 1018.0 1017.9 0.0
24/07:30pm 14.4 12.3 5.7 56 4.1 SW 6 9 3 5 1017.9 1017.8 0.0
24/07:00pm 14.0 11.7 5.6 57 4.0 SW 7 11 4 6 1017.5 1017.4 0.0
24/06:30pm 13.0 10.7 5.7 61 3.4 SW 7 11 4 6 1016.9 1016.9 0.0
24/06:00pm 14.9 12.5 5.4 53 4.5 WSW 7 11 4 6 1016.5 1016.5 0.0
24/05:30pm 16.1 12.5 5.1 48 5.2 WSW 13 20 7 11 1016.0 1016.0 0.0
24/05:00pm 17.3 12.4 5.3 45 5.8 WSW 20 32 11 17 1015.5 1015.5 0.0
24/04:30pm 18.1 13.4 5.3 43 6.2 WSW 19 28 10 15 1014.9 1014.9 0.0
24/04:00pm 19.2 15.2 6.7 44 6.3 WSW 17 32 9 17 1014.5 1014.5 0.0
24/03:30pm 19.9 14.4 5.9 40 7.0 WSW 24 39 13 21 1013.8 1013.8 0.0
24/03:00pm 20.7 15.7 6.6 40 7.2 W 22 28 12 15 1013.3 1013.3 0.0
24/02:30pm 21.1 16.2 7.0 40 7.2 WSW 22 32 12 17 1013.2 1013.2 0.0
24/02:00pm 21.1 15.8 6.6 39 7.4 WSW 24 35 13 19 1013.0 1013.0 0.0
24/01:30pm 22.1 18.6 8.9 43 7.0 W 17 26 9 14 1012.9 1012.9 0.0
24/01:00pm 21.4 16.4 8.0 42 7.0 WSW 24 33 13 18 1012.9 1012.9 0.0
24/12:30pm 21.4 16.5 8.3 43 6.9 W 24 33 13 18 1013.2 1013.2 0.0
24/12:00pm 20.9 19.8 12.1 57 4.9 NW 9 17 5 9 1013.5 1013.5 0.0
24/11:30am 19.5 19.9 13.7 69 3.3 E 4 6 2 3 1014.1 1014.1 0.0
24/11:00am 17.6 17.6 13.5 77 2.3 SSE 6 9 3 5 1014.6 1014.6 0.0
24/10:30am 16.8 16.9 13.9 83 1.7 SSW 6 9 3 5 1014.9 1014.9 0.0
24/10:00am 16.6 15.8 13.9 84 1.5 SW 11 15 6 8 1015.0 1015.0 0.0
24/09:30am 16.8 17.3 14.1 84 1.5 W 4 9 2 5 1014.8 1014.8 0.0
24/09:00am 15.2 16.4 14.9 98 0.2 WNW 2 6 1 3 1014.8 1014.8 3.2
24/08:30am 13.1 14.1 13.1 100 0.0 CALM 0 0 0 0 1015.1 1015.1 3.2
24/08:00am 12.7 12.8 12.7 100 0.0 W 4 9 2 5 1015.1 1015.1 3.2
24/07:30am 11.7 10.5 11.7 100 0.0 WNW 9 11 5 6 1015.0 1015.0 3.2
24/07:00am 11.1 10.1 11.1 100 0.0 WNW 7 11 4 6 1014.9 1014.9 3.2
24/06:30am 10.9 10.8 10.9 100 0.0 W 2 7 1 4 1015.0 1015.0 3.2
24/06:00am 11.8 11.2 11.8 100 0.0 W 6 9 3 5 1014.7 1014.7 3.0
24/05:30am 11.9 11.7 11.9 100 0.0 W 4 7 2 4 1014.6 1014.6 3.0
24/05:00am 11.8 11.2 11.8 100 0.0 WNW 6 7 3 4 1014.2 1014.2 2.6
24/04:30am 12.3 12.3 12.3 100 0.0 W 4 11 2 6 1014.6 1014.6 2.6
24/04:00am 12.4 10.7 12.4 100 0.0 SW 13 22 7 12 1015.5 1015.5 2.4
24/03:47am 12.0 7.7 12.0 100 0.0 SW 26 48 14 26 1016.0 1016.0 0.0
24/03:42am 11.2 8.4 11.2 100 0.0 NNW 17 43 9 23 1015.7 1015.7 0.0
24/03:30am 10.7 9.6 10.7 100 0.0 NNE 7 9 4 5 1014.5 1014.5 0.0
24/03:00am 10.2 9.5 10.2 100 0.0 NNE 4 4 2 2 1014.6 1014.6 0.0
24/02:30am 10.2 9.9 10.2 100 0.0 NNE 2 6 1 3 1015.2 1015.2 0.0
24/02:00am 8.9 7.5 8.9 100 0.0 NNE 6 7 3 4 1015.5 1015.5 0.0
24/01:30am 8.9 8.7 8.9 100 0.0 CALM 0 4 0 2 1015.7 1015.7 0.0
24/01:00am 10.6 10.8 10.6 100 0.0 CALM 0 0 0 0 1016.0 1016.0 0.0
24/12:30am 10.9 10.1 10.9 100 0.0 NNE 6 7 3 4 1016.3 1016.3 0.0
24/12:00am 10.6 10.4 10.6 100 0.0 NNE 2 4 1 2 1016.6 1016.6 0.0
 
Date/Time
EST
Temp
°C
App
Temp
°C
Dew
Point
°C
Rel
Hum
%
Delta-T
°C
Wind Press
QNH
hPa
Press
MSL
hPa
Rain since
9am
mm
Dir  Spd
km/h
Gust
km/h
Spd
kts
Gust
kts
23/11:30pm 11.3 11.7 11.1 99 0.1 CALM 0 0 0 0 1016.8 1016.8 0.0
23/11:00pm 13.5 14.6 13.5 100 0.0 CALM 0 0 0 0 1017.2 1017.2 0.0
23/10:30pm 12.9 13.8 12.9 100 0.0 CALM 0 0 0 0 1017.2 1017.2 0.0
23/10:00pm 12.7 12.7 12.5 99 0.1 NNE 4 4 2 2 1017.6 1017.5 0.0
23/09:30pm 12.9 13.0 12.7 99 0.1 NNE 4 6 2 3 1017.6 1017.5 0.0
23/09:00pm 13.7 14.7 13.2 97 0.3 CALM 0 0 0 0 1017.5 1017.4 0.0
23/08:30pm 14.4 14.1 13.4 94 0.6 NNE 7 9 4 5 1017.6 1017.5 0.0
23/08:00pm 16.1 16.0 13.4 84 1.5 NNE 6 9 3 5 1017.3 1017.3 0.0
23/07:30pm 14.5 14.7 12.9 90 0.9 NNE 4 6 2 3 1017.6 1017.5 0.0
23/07:00pm 15.5 15.1 12.3 81 1.8 NNE 6 7 3 4 1017.7 1017.6 0.0
23/06:30pm 16.4 16.7 13.5 83 1.6 NNE 4 6 2 3 1017.2 1017.2 0.0
23/06:00pm 17.5 18.6 13.6 78 2.2 CALM 0 0 0 0 1017.3 1017.3 0.0
23/05:30pm 17.9 18.7 13.6 76 2.4 NNE 2 2 1 1 1017.2 1017.2 0.0
23/05:00pm 19.0 18.9 13.4 70 3.2 N 6 7 3 4 1017.2 1017.2 0.0
23/04:30pm 20.1 20.0 13.8 67 3.6 N 7 9 4 5 1017.0 1017.0 0.0
23/04:00pm 20.6 20.7 13.8 65 3.9 NE 6 7 3 4 1016.7 1016.7 0.0
23/03:30pm 21.8 20.9 13.7 60 4.7 NNE 11 15 6 8 1016.9 1016.9 0.0
23/03:00pm 22.3 21.3 13.4 57 5.1 N 11 13 6 7 1016.9 1016.9 0.0
23/02:30pm 23.0 23.1 14.0 57 5.3 N 6 13 3 7 1017.2 1017.2 0.0
23/02:00pm 22.7 22.7 13.7 56 5.2 N 6 11 3 6 1017.7 1017.6 0.0
23/01:30pm 22.3 21.5 12.8 55 5.4 N 9 17 5 9 1017.9 1017.8 0.0
23/01:00pm 21.9 21.0 13.8 60 4.7 N 11 15 6 8 1018.2 1018.1 0.0
23/12:30pm 21.8 21.4 14.2 62 4.5 NE 9 17 5 9 1018.9 1018.8 0.0
23/12:00pm 21.4 21.4 14.1 63 4.3 NNE 7 13 4 7 1019.5 1019.4 0.0
23/11:30am 20.4 20.1 14.3 68 3.6 N 9 13 5 7 1020.0 1019.9 0.0
23/11:00am 20.5 20.3 14.8 70 3.3 N 9 11 5 6 1020.7 1020.6 0.0
23/10:30am 19.8 20.0 14.8 73 2.9 N 7 11 4 6 1021.1 1021.0 0.0
23/10:00am 19.0 20.4 14.3 74 2.7 CALM 0 2 0 1 1021.7 1021.7 0.0
23/09:30am 16.6 17.9 14.2 86 1.4 CALM 0 0 0 0 1021.9 1021.9 0.0
23/09:00am 15.1 15.9 14.9 99 0.1 ENE 4 7 2 4 1022.3 1022.3 0.0
23/08:30am 14.0 15.3 14.0 100 0.0 CALM 0 0 0 0 1022.6 1022.6 0.0
23/08:00am 12.4 13.2 12.4 100 0.0 CALM 0 0 0 0 1022.5 1022.5 0.0
23/07:30am 11.0 10.6 11.0 100 0.0 NE 4 6 2 3 1022.1 1022.1 0.0
23/07:00am 11.7 12.2 11.7 100 0.0 CALM 0 0 0 0 1021.9 1021.9 0.0
23/06:30am 11.6 11.7 11.6 100 0.0 NE 2 6 1 3 1021.6 1021.5 0.0
23/06:00am 12.8 13.7 12.8 100 0.0 CALM 0 0 0 0 1021.6 1021.5 0.0
23/05:30am 12.5 12.5 12.5 100 0.0 NE 4 4 2 2 1021.3 1021.2 0.0
23/05:00am 12.5 12.1 12.5 100 0.0 NE 6 6 3 3 1021.2 1021.1 0.0
23/04:30am 12.6 12.3 12.6 100 0.0 NE 6 6 3 3 1021.1 1021.0 0.0
23/04:00am 12.5 12.1 12.5 100 0.0 NE 6 7 3 4 1021.2 1021.1 0.0
23/03:30am 12.5 12.0 12.5 100 0.0 NE 7 7 4 4 1021.5 1021.4 0.0
23/03:00am 12.3 11.9 12.3 100 0.0 NE 6 6 3 3 1021.6 1021.5 0.0
23/02:30am 12.9 12.7 12.9 100 0.0 NE 6 6 3 3 1021.7 1021.7 0.0
23/02:00am 13.4 13.7 13.4 100 0.0 NE 4 6 2 3 1021.9 1021.9 0.0
23/01:30am 13.5 13.5 13.5 100 0.0 NE 6 7 3 4 1022.2 1022.2 0.0
23/01:00am 13.6 14.4 13.6 100 0.0 NE 2 2 1 1 1022.5 1022.5 0.0
23/12:30am 13.6 14.0 13.6 100 0.0 NE 4 4 2 2 1022.7 1022.7 0.0
23/12:00am 13.3 13.2 13.3 100 0.0 NE 6 6 3 3 1022.9 1022.9 0.0
 
Date/Time
EST
Temp
°C
App
Temp
°C
Dew
Point
°C
Rel
Hum
%
Delta-T
°C
Wind Press
QNH
hPa
Press
MSL
hPa
Rain since
9am
mm
Dir  Spd
km/h
Gust
km/h
Spd
kts
Gust
kts
22/11:30pm 13.4 13.7 13.4 100 0.0 NE 4 4 2 2 1023.1 1023.1 0.0
22/11:00pm 13.0 12.7 12.8 99 0.1 NE 6 6 3 3 1023.2 1023.2 0.0
22/10:30pm 13.2 13.0 13.0 99 0.1 NE 6 6 3 3 1023.3 1023.3 0.0
22/10:00pm 13.3 13.5 13.1 99 0.1 NE 4 4 2 2 1023.5 1023.5 0.0
22/09:30pm 13.3 13.5 13.1 99 0.1 NE 4 6 2 3 1023.5 1023.5 0.0
22/09:00pm 13.4 13.1 12.8 96 0.3 NE 6 6 3 3 1023.3 1023.3 0.0
22/08:30pm 14.4 15.1 13.4 94 0.6 NE 2 2 1 1 1023.3 1023.3 0.0
22/08:00pm 15.5 15.9 13.7 89 1.0 NE 4 6 2 3 1023.1 1023.1 0.0
22/07:30pm 15.7 15.7 13.5 87 1.2 NE 6 6 3 3 1022.9 1022.9 0.0
22/07:00pm 16.2 16.5 13.5 84 1.5 NE 4 4 2 2 1022.9 1022.9 0.0
22/06:30pm 16.7 17.7 13.2 80 2.0 CALM 0 4 0 2 1022.7 1022.7 0.0
22/06:00pm 17.2 17.1 13.3 78 2.2 NE 6 7 3 4 1022.5 1022.5 0.0
22/05:30pm 17.9 17.6 13.4 75 2.6 ENE 7 9 4 5 1022.3 1022.3 0.0
22/05:00pm 18.4 18.0 13.1 71 3.0 NE 7 11 4 6 1022.1 1022.1 0.0
22/04:30pm 19.0 18.6 12.3 65 3.7 NE 6 9 3 5 1021.8 1021.8 0.0
22/04:00pm 20.0 19.0 12.3 61 4.3 NE 9 11 5 6 1021.6 1021.5 0.0
22/03:30pm 20.7 20.0 11.9 57 4.9 NE 7 11 4 6 1021.7 1021.7 0.0
22/03:00pm 21.0 19.8 11.6 55 5.2 NNE 9 13 5 7 1021.6 1021.5 0.0
22/02:30pm 21.1 20.3 11.7 55 5.3 NNE 7 11 4 6 1021.8 1021.8 0.0
22/02:00pm 20.9 20.2 12.1 57 4.9 NNE 7 15 4 8 1022.1 1022.1 0.0
22/01:30pm 20.1 19.6 12.1 60 4.5 NE 6 9 3 5 1022.3 1022.3 0.0
22/01:00pm 19.9 19.5 12.4 62 4.2 NNE 6 9 3 5 1022.4 1022.4 0.0
22/12:30pm 20.9 21.0 12.6 59 4.7 NE 4 7 2 4 1022.7 1022.7 0.0
22/12:00pm 20.4 20.4 13.6 65 3.9 WNW 6 11 3 6 1023.3 1023.3 0.0
22/11:30am 18.8 20.0 13.9 73 2.8 CALM 0 0 0 0 1023.7 1023.7 0.0
22/11:00am 19.1 20.0 14.1 73 2.9 W 2 6 1 3 1024.2 1024.2 0.0
22/10:30am 17.7 18.4 14.4 81 1.9 WSW 4 9 2 5 1024.5 1024.5 0.0
22/10:00am 17.6 18.6 14.3 81 1.9 WSW 2 6 1 3 1024.9 1024.9 0.0
22/09:30am 15.7 16.4 14.6 93 0.6 SSW 4 6 2 3 1024.9 1024.9 0.0
22/09:00am 13.7 13.7 13.7 100 0.0 WSW 6 11 3 6 1024.8 1024.8 0.0
22/08:30am 12.6 12.7 12.6 100 0.0 WSW 4 6 2 3 1025.0 1025.0 0.0
22/08:00am 12.0 12.6 12.0 100 0.0 CALM 0 0 0 0 1024.7 1024.7 0.0
22/07:30am 10.0 9.3 10.0 100 0.0 WSW 4 4 2 2 1024.2 1024.2 0.0
22/07:00am 10.2 9.9 10.2 100 0.0 WSW 2 4 1 2 1024.0 1024.0 0.0
22/06:30am 10.6 10.1 10.6 100 0.0 WSW 4 4 2 2 1023.9 1023.9 0.0
22/06:00am 10.4 10.6 10.4 100 0.0 CALM 0 0 0 0 1023.6 1023.6 0.0
22/05:30am 10.7 10.9 10.7 100 0.0 CALM 0 0 0 0 1023.2 1023.2 0.0
22/05:00am 11.2 10.8 11.2 100 0.0 WSW 4 6 2 3 1022.9 1022.9 0.0
22/04:30am 11.1 10.3 11.1 100 0.0 WSW 6 6 3 3 1022.9 1022.9 0.0
22/04:00am 10.6 9.1 10.6 100 0.0 WSW 9 9 5 5 1022.6 1022.6 0.0
22/03:30am 11.3 10.6 11.3 100 0.0 WSW 6 6 3 3 1022.6 1022.6 0.0
22/03:00am 10.2 8.9 10.1 99 0.1 WSW 7 9 4 5 1022.5 1022.5 0.0
22/02:30am 11.7 11.1 11.7 100 0.0 WSW 6 6 3 3 1022.7 1022.7 0.0
22/02:00am 11.6 11.0 11.6 100 0.0 WSW 6 7 3 4 1022.8 1022.8 0.0
22/01:30am 12.0 12.2 12.0 100 0.0 WSW 2 4 1 2 1022.8 1022.8 0.0
22/01:00am 11.9 11.2 11.9 100 0.0 WSW 7 9 4 5 1022.8 1022.8 0.0
22/12:30am 12.5 12.1 12.5 100 0.0 WSW 6 7 3 4 1023.1 1023.1 0.0
22/12:00am 12.6 12.2 12.4 99 0.1 WSW 6 6 3 3 1023.1 1023.1 0.0
 
Date/Time
EST
Temp
°C
App
Temp
°C
Dew
Point
°C
Rel
Hum
%
Delta-T
°C
Wind Press
QNH
hPa
Press
MSL
hPa
Rain since
9am
mm
Dir  Spd
km/h
Gust
km/h
Spd
kts
Gust
kts
21/11:30pm 12.5 12.1 12.3 99 0.1 WSW 6 6 3 3 1023.1 1023.1 0.0
21/11:00pm 12.6 12.2 12.4 99 0.1 WSW 6 7 3 4 1023.0 1023.0 0.0
21/10:30pm 13.1 13.3 12.9 99 0.1 WSW 4 4 2 2 1023.0 1023.0 0.0
21/10:00pm 12.3 11.6 12.1 99 0.1 WSW 7 9 4 5 1022.9 1022.9 0.0

Latest Capital City Observations: Canberra | Sydney | Melbourne | Brisbane | Adelaide | Perth | Hobart | Darwin

Other Formats:

Comma delimited format used in spreadsheet applications
http://www.bom.gov.au/fwo/IDN60901/IDN60901.94752.axf

JavaScript Object Notation format (JSON) in row-major order
http://www.bom.gov.au/fwo/IDN60901/IDN60901.94752.json